createdAt,value
2019-05-16T00:26:53.129Z,4.47
2019-05-16T00:56:57.685Z,4.58
2019-05-16T01:26:59.981Z,5.92
2019-05-16T01:57:02.606Z,9.57
2019-05-16T02:27:05.228Z,9.93
2019-05-16T02:57:10.851Z,10.05
2019-05-16T03:27:12.303Z,7.73
2019-05-16T03:57:14.921Z,9.40
2019-05-16T04:27:17.593Z,8.93
2019-05-16T04:57:20.889Z,10.57
2019-05-16T05:27:23.818Z,9.70
2019-05-16T05:57:26.483Z,14.70
2019-05-16T06:27:30.309Z,21.93
2019-05-16T06:57:33.106Z,21.77
2019-05-16T07:27:35.747Z,14.63
2019-05-16T07:57:41.252Z,11.88
2019-05-16T08:27:45.007Z,5.08
2019-05-16T08:57:52.501Z,4.30
2019-05-16T09:27:52.004Z,6.73
2019-05-16T09:57:57.450Z,3.98
2019-05-16T10:27:58.883Z,2.02
2019-05-16T10:58:01.555Z,1.02
2019-05-16T11:28:04.839Z,1.92
2019-05-16T11:58:08.477Z,4.72
2019-05-16T12:28:11.077Z,1.70
2019-05-16T12:58:24.594Z,3.98
2019-05-16T13:28:19.598Z,8.03
2019-05-16T13:58:22.206Z,8.08
2019-05-16T14:28:24.818Z,9.60
2019-05-16T14:58:30.694Z,4.20
2019-05-16T15:28:31.848Z,3.72
2019-05-16T15:58:37.161Z,5.10
2019-05-16T16:28:38.905Z,6.95
2019-05-16T16:58:42.654Z,7.92
2019-05-16T17:28:46.717Z,7.05
2019-05-16T17:58:49.501Z,8.98
2019-05-16T18:28:52.961Z,11.30
2019-05-16T18:58:57.250Z,11.73
2019-05-16T19:29:01.044Z,21.68
2019-05-16T19:59:06.687Z,22.73
2019-05-16T20:29:09.173Z,25.52
2019-05-16T20:59:11.812Z,19.73
2019-05-16T21:29:19.589Z,21.65
2019-05-16T21:59:21.020Z,28.80
2019-05-16T22:29:26.321Z,24.85
2019-05-16T22:59:30.414Z,32.83
2019-05-16T23:29:33.030Z,35.10
2019-05-16T23:59:36.926Z,33.50
